createdAt,value
2018-05-31T00:00:53.809Z,95.50
2018-05-31T00:03:21.414Z,95.43
2018-05-31T00:05:49.053Z,94.70
2018-05-31T00:08:16.662Z,94.36
2018-05-31T00:10:44.248Z,95.03
2018-05-31T00:13:11.911Z,94.72
2018-05-31T00:15:40.263Z,94.40
2018-05-31T00:18:07.941Z,95.04
2018-05-31T00:20:35.541Z,95.09
2018-05-31T00:23:03.179Z,95.49
2018-05-31T00:25:30.998Z,95.22
2018-05-31T00:27:58.745Z,94.55
2018-05-31T00:30:27.271Z,94.73
2018-05-31T00:32:54.873Z,94.26
2018-05-31T00:35:22.467Z,94.57
2018-05-31T00:37:50.058Z,94.81
2018-05-31T00:40:17.650Z,93.83
2018-05-31T00:42:45.270Z,93.61
2018-05-31T00:45:12.869Z,93.82
2018-05-31T00:47:40.477Z,94.41
2018-05-31T00:50:08.071Z,93.64
2018-05-31T00:52:35.688Z,93.27
2018-05-31T00:55:03.284Z,93.78
2018-05-31T00:57:30.886Z,93.36
2018-05-31T00:59:58.483Z,93.77
2018-05-31T01:02:26.135Z,92.76
2018-05-31T01:04:53.742Z,92.66
2018-05-31T01:07:21.352Z,93.51
2018-05-31T01:09:48.946Z,93.50
2018-05-31T01:12:16.541Z,93.47
2018-05-31T01:14:44.183Z,94.09
2018-05-31T01:17:11.873Z,94.29
2018-05-31T01:19:39.566Z,94.94
2018-05-31T01:22:07.198Z,94.27
2018-05-31T01:24:34.833Z,94.58
2018-05-31T01:27:02.559Z,94.38
2018-05-31T01:29:30.209Z,94.29
2018-05-31T01:31:57.872Z,94.14
2018-05-31T01:34:25.506Z,94.49
2018-05-31T01:36:53.088Z,95.20
2018-05-31T01:39:20.692Z,95.54
2018-05-31T01:41:48.293Z,94.65
2018-05-31T01:44:15.887Z,95.22
2018-05-31T01:46:43.504Z,95.63
2018-05-31T01:49:11.109Z,95.42
2018-05-31T01:51:38.710Z,94.45
2018-05-31T01:54:06.309Z,94.25
2018-05-31T01:56:33.896Z,94.28
2018-05-31T01:59:01.502Z,95.06
2018-05-31T02:01:29.192Z,95.66
2018-05-31T02:03:56.800Z,95.67
2018-05-31T02:06:24.441Z,96.00
2018-05-31T02:08:52.038Z,95.21
2018-05-31T02:11:19.635Z,95.33
2018-05-31T02:13:47.352Z,95.75
2018-05-31T02:16:14.950Z,96.19
2018-05-31T02:18:42.557Z,96.80
2018-05-31T02:21:10.186Z,96.96
2018-05-31T02:23:37.834Z,95.75
2018-05-31T02:26:05.485Z,96.00
2018-05-31T02:28:33.083Z,95.64
2018-05-31T02:31:00.727Z,95.92
2018-05-31T02:33:28.343Z,95.87
2018-05-31T02:35:55.979Z,95.16
2018-05-31T02:38:23.576Z,94.51
2018-05-31T02:40:51.169Z,94.55
2018-05-31T02:43:18.773Z,95.12
2018-05-31T02:45:46.410Z,95.65
2018-05-31T02:48:14.053Z,95.75
2018-05-31T02:50:41.654Z,95.10
2018-05-31T02:53:09.291Z,95.72
2018-05-31T02:55:36.961Z,96.06
2018-05-31T02:58:04.609Z,95.77
2018-05-31T03:00:32.205Z,95.21
2018-05-31T03:02:59.801Z,96.39
2018-05-31T03:05:27.421Z,96.51
2018-05-31T03:07:55.061Z,96.57
2018-05-31T03:10:23.606Z,96.90
2018-05-31T03:12:51.214Z,96.26
2018-05-31T03:15:18.804Z,96.63
2018-05-31T03:17:46.425Z,96.91
2018-05-31T03:20:14.022Z,97.23
2018-05-31T03:22:41.623Z,97.21
2018-05-31T03:25:09.227Z,97.37
2018-05-31T03:27:36.814Z,96.78
2018-05-31T03:30:04.409Z,97.18
2018-05-31T03:32:32.009Z,97.66
2018-05-31T03:34:59.677Z,97.76
2018-05-31T03:37:29.127Z,97.69
2018-05-31T03:39:56.762Z,97.86
2018-05-31T03:42:24.423Z,97.46
2018-05-31T03:44:52.021Z,97.13
2018-05-31T03:47:19.665Z,95.87
2018-05-31T03:49:47.393Z,95.37
2018-05-31T03:52:15.025Z,95.31
2018-05-31T03:54:42.619Z,94.97
2018-05-31T03:57:10.234Z,95.12
2018-05-31T03:59:37.835Z,94.74
2018-05-31T04:02:05.430Z,94.61
2018-05-31T04:04:33.041Z,93.87
2018-05-31T04:07:00.691Z,94.01
2018-05-31T04:09:28.284Z,94.12
2018-05-31T04:11:55.925Z,94.44
2018-05-31T04:14:23.522Z,94.55
2018-05-31T04:16:51.130Z,94.91
2018-05-31T04:19:18.829Z,94.01
2018-05-31T04:21:46.416Z,94.02
2018-05-31T04:24:14.613Z,93.85
2018-05-31T04:26:42.282Z,92.63
2018-05-31T04:29:09.877Z,92.58
2018-05-31T04:31:37.473Z,92.86
2018-05-31T04:34:05.922Z,93.45
2018-05-31T04:36:33.535Z,92.43
2018-05-31T04:39:01.170Z,92.07
2018-05-31T04:41:28.823Z,91.55
2018-05-31T04:43:56.495Z,91.13
2018-05-31T04:46:24.150Z,91.77
2018-05-31T04:48:51.845Z,91.03
2018-05-31T04:51:19.442Z,90.08
2018-05-31T04:53:47.051Z,91.22
2018-05-31T04:56:14.697Z,90.76
2018-05-31T04:58:42.371Z,90.09
2018-05-31T05:01:09.972Z,90.49
2018-05-31T05:03:37.573Z,90.89
2018-05-31T05:06:05.217Z,91.30
2018-05-31T05:08:32.836Z,91.28
2018-05-31T05:11:00.573Z,89.03
2018-05-31T05:13:28.168Z,89.00
2018-05-31T05:15:55.833Z,89.34
2018-05-31T05:18:23.454Z,87.81
2018-05-31T05:20:51.122Z,87.61
2018-05-31T05:23:18.719Z,88.04
2018-05-31T05:25:46.320Z,88.49
2018-05-31T05:28:13.913Z,88.58
2018-05-31T05:30:41.519Z,86.97
2018-05-31T05:33:09.271Z,86.43
2018-05-31T05:35:36.899Z,85.71
2018-05-31T05:38:04.536Z,83.95
2018-05-31T05:40:32.131Z,84.71
2018-05-31T05:42:59.745Z,83.65
2018-05-31T05:45:27.451Z,84.90
2018-05-31T05:47:55.114Z,84.24
2018-05-31T05:50:22.809Z,82.09
2018-05-31T05:52:50.407Z,81.29
2018-05-31T05:55:18.043Z,82.16
2018-05-31T05:57:45.685Z,79.75
2018-05-31T06:00:14.616Z,78.28
2018-05-31T06:02:42.836Z,79.56
2018-05-31T06:05:11.954Z,78.79
2018-05-31T06:07:41.180Z,80.80
2018-05-31T06:10:09.156Z,78.41
2018-05-31T06:12:37.297Z,78.06
2018-05-31T06:15:05.595Z,75.49
2018-05-31T06:17:33.917Z,75.66
2018-05-31T06:20:01.590Z,74.71
2018-05-31T06:22:29.189Z,74.81
2018-05-31T06:24:56.815Z,75.96
2018-05-31T06:27:24.423Z,73.47
2018-05-31T06:29:52.009Z,74.75
2018-05-31T06:32:19.604Z,75.67
2018-05-31T06:34:47.225Z,75.83
2018-05-31T06:37:14.838Z,71.09
2018-05-31T06:39:42.523Z,70.46
2018-05-31T06:42:10.109Z,70.65
2018-05-31T06:44:37.818Z,68.72
2018-05-31T06:47:05.424Z,68.36
2018-05-31T06:49:33.010Z,68.87
2018-05-31T06:52:00.693Z,66.56
2018-05-31T06:54:28.286Z,67.49
2018-05-31T06:56:55.909Z,65.57
2018-05-31T06:59:24.234Z,65.69
2018-05-31T07:01:51.860Z,67.28
2018-05-31T07:04:19.453Z,68.98
2018-05-31T07:06:47.127Z,65.35
2018-05-31T07:09:14.698Z,65.85
2018-05-31T07:11:42.341Z,65.68
2018-05-31T07:14:09.927Z,65.68
2018-05-31T07:16:37.513Z,65.39
2018-05-31T07:19:05.105Z,66.03
2018-05-31T07:21:32.895Z,65.16
2018-05-31T07:24:00.510Z,59.67
2018-05-31T07:26:28.109Z,61.69
2018-05-31T07:28:55.695Z,60.10
2018-05-31T07:31:23.359Z,61.26
2018-05-31T07:33:50.943Z,61.98
2018-05-31T07:36:18.570Z,59.93
2018-05-31T07:38:46.160Z,57.06
2018-05-31T07:41:13.757Z,58.21
2018-05-31T07:43:41.332Z,59.57
2018-05-31T07:46:08.910Z,58.25
2018-05-31T07:48:36.502Z,57.85
2018-05-31T07:51:04.098Z,58.19
2018-05-31T07:53:31.762Z,54.81
2018-05-31T07:55:59.351Z,56.73
2018-05-31T07:58:27.038Z,57.61
2018-05-31T08:00:54.650Z,56.21
2018-05-31T08:03:22.372Z,56.70
2018-05-31T08:05:49.999Z,56.65
2018-05-31T08:08:17.582Z,58.26
2018-05-31T08:10:45.158Z,56.31
2018-05-31T08:13:13.682Z,54.94
2018-05-31T08:15:41.602Z,52.80
2018-05-31T08:18:09.237Z,55.44
2018-05-31T08:20:36.911Z,51.97
2018-05-31T08:23:04.575Z,52.20
2018-05-31T08:25:32.152Z,52.75
2018-05-31T08:27:59.815Z,53.03
2018-05-31T08:30:27.399Z,51.55
2018-05-31T08:32:54.973Z,53.48
2018-05-31T08:35:22.559Z,51.54
2018-05-31T08:37:50.205Z,48.52
2018-05-31T08:40:17.793Z,47.26
2018-05-31T08:42:45.380Z,48.47
2018-05-31T08:45:13.004Z,47.50
2018-05-31T08:47:40.661Z,49.67
2018-05-31T08:50:08.475Z,48.31
2018-05-31T08:52:36.057Z,47.40
2018-05-31T08:55:03.679Z,47.94
2018-05-31T08:57:31.257Z,48.56
2018-05-31T08:59:58.881Z,48.61
2018-05-31T09:02:26.461Z,45.10
2018-05-31T09:04:54.085Z,46.78
2018-05-31T09:07:21.657Z,45.35
2018-05-31T09:09:49.239Z,44.22
2018-05-31T09:12:16.857Z,45.12
2018-05-31T09:14:44.536Z,44.31
2018-05-31T09:17:12.117Z,42.92
2018-05-31T09:19:39.762Z,45.76
2018-05-31T09:22:07.432Z,44.11
2018-05-31T09:24:35.045Z,44.34
2018-05-31T09:27:02.625Z,42.84
2018-05-31T09:29:30.256Z,45.15
2018-05-31T09:31:57.837Z,44.80
2018-05-31T09:34:25.462Z,44.46
2018-05-31T09:36:53.047Z,42.89
2018-05-31T09:39:20.620Z,41.30
2018-05-31T09:41:48.201Z,44.06
2018-05-31T09:44:15.816Z,44.51
2018-05-31T09:46:43.546Z,44.19
2018-05-31T09:49:11.206Z,42.80
2018-05-31T09:51:38.870Z,43.70
2018-05-31T09:54:06.453Z,43.17
2018-05-31T09:56:34.066Z,41.65
2018-05-31T09:59:02.572Z,40.25
2018-05-31T10:01:30.199Z,43.67
2018-05-31T10:03:58.686Z,41.60
2018-05-31T10:06:26.305Z,41.65
2018-05-31T10:08:53.888Z,43.19
2018-05-31T10:11:21.526Z,42.66
2018-05-31T10:13:49.119Z,44.50
2018-05-31T10:16:16.829Z,42.48
2018-05-31T10:18:44.664Z,44.00
2018-05-31T10:21:12.250Z,42.21
2018-05-31T10:23:39.925Z,41.71
2018-05-31T10:26:07.990Z,40.73
2018-05-31T10:28:35.617Z,39.80
2018-05-31T10:31:03.240Z,42.17
2018-05-31T10:33:30.828Z,39.87
2018-05-31T10:35:58.453Z,40.55
2018-05-31T10:38:29.080Z,40.94
2018-05-31T10:40:57.202Z,41.33
2018-05-31T10:43:24.785Z,40.43
2018-05-31T10:45:52.365Z,39.12
2018-05-31T10:48:20.058Z,40.07
2018-05-31T10:50:47.634Z,39.38
2018-05-31T10:53:15.263Z,40.62
2018-05-31T10:55:43.106Z,39.35
2018-05-31T10:58:10.693Z,37.27
2018-05-31T11:00:38.295Z,36.99
2018-05-31T11:03:05.881Z,37.09
2018-05-31T11:05:33.473Z,40.05
2018-05-31T11:08:01.101Z,40.10
2018-05-31T11:10:28.688Z,39.01
2018-05-31T11:12:56.282Z,40.64
2018-05-31T11:15:23.922Z,41.31
2018-05-31T11:17:51.541Z,37.71
2018-05-31T11:20:19.156Z,37.22
2018-05-31T11:22:47.781Z,37.15
2018-05-31T11:25:15.374Z,37.14
2018-05-31T11:27:43.106Z,37.12
2018-05-31T11:30:10.719Z,36.83
2018-05-31T11:32:38.306Z,38.15
2018-05-31T11:35:05.943Z,38.98
2018-05-31T11:37:33.607Z,39.77
2018-05-31T11:40:01.192Z,35.26
2018-05-31T11:42:28.822Z,35.53
2018-05-31T11:44:56.400Z,34.98
2018-05-31T11:47:23.988Z,34.78
2018-05-31T11:49:51.571Z,36.91
2018-05-31T11:52:19.451Z,38.61
2018-05-31T11:54:47.026Z,34.23
2018-05-31T11:57:14.601Z,35.28
2018-05-31T11:59:42.175Z,36.15
2018-05-31T12:02:09.798Z,37.05
2018-05-31T12:04:37.377Z,36.12
2018-05-31T12:07:05.002Z,34.97
2018-05-31T12:09:32.582Z,37.20
2018-05-31T12:12:00.160Z,36.82
2018-05-31T12:14:27.769Z,36.55
2018-05-31T12:16:55.389Z,35.60
2018-05-31T12:19:23.020Z,35.36
2018-05-31T12:21:50.602Z,35.80
2018-05-31T12:24:18.224Z,37.47
2018-05-31T12:26:45.896Z,35.29
2018-05-31T12:29:13.485Z,35.20
2018-05-31T12:31:41.185Z,36.05
2018-05-31T12:34:08.758Z,37.39
2018-05-31T12:36:36.341Z,35.45
2018-05-31T12:39:03.926Z,35.44
2018-05-31T12:41:31.504Z,37.11
2018-05-31T12:43:59.136Z,36.48
2018-05-31T12:46:26.708Z,35.66
2018-05-31T12:48:54.292Z,35.60
2018-05-31T12:51:21.873Z,34.68
2018-05-31T12:53:49.453Z,36.14
2018-05-31T12:56:17.069Z,36.00
2018-05-31T12:58:44.662Z,34.56
2018-05-31T13:01:12.278Z,32.84
2018-05-31T13:03:39.862Z,33.12
2018-05-31T13:06:07.588Z,35.30
2018-05-31T13:08:35.106Z,35.42
2018-05-31T13:11:02.710Z,36.71
2018-05-31T13:13:30.301Z,34.39
2018-05-31T13:15:57.897Z,34.69
2018-05-31T13:18:25.483Z,34.24
2018-05-31T13:20:53.065Z,34.55
2018-05-31T13:23:20.648Z,34.26
2018-05-31T13:25:48.229Z,34.41
2018-05-31T13:28:16.810Z,35.48
2018-05-31T13:30:44.397Z,34.83
2018-05-31T13:33:12.000Z,33.94
2018-05-31T13:35:40.101Z,32.14
2018-05-31T13:38:07.817Z,33.12
2018-05-31T13:40:35.429Z,34.14
2018-05-31T13:43:03.038Z,32.51
2018-05-31T13:45:30.629Z,34.74
2018-05-31T13:47:58.310Z,34.47
2018-05-31T13:50:26.671Z,32.78
2018-05-31T13:52:55.082Z,33.08
2018-05-31T13:55:22.668Z,34.74
2018-05-31T13:57:50.254Z,35.58
2018-05-31T14:00:17.839Z,37.95
2018-05-31T14:02:45.422Z,34.03
2018-05-31T14:05:13.001Z,34.07
2018-05-31T14:07:40.586Z,33.33
2018-05-31T14:10:08.169Z,35.33
2018-05-31T14:12:35.752Z,35.79
2018-05-31T14:15:03.338Z,33.87
2018-05-31T14:17:30.938Z,31.25
2018-05-31T14:19:58.521Z,32.34
2018-05-31T14:22:26.123Z,31.79
2018-05-31T14:24:53.701Z,34.77
2018-05-31T14:27:21.289Z,32.44
2018-05-31T14:29:48.878Z,31.91
2018-05-31T14:32:16.483Z,34.03
2018-05-31T14:34:44.069Z,34.44
2018-05-31T14:37:11.682Z,35.88
2018-05-31T14:39:39.273Z,36.82
2018-05-31T14:42:06.861Z,38.62
2018-05-31T14:44:34.466Z,35.86
2018-05-31T14:47:02.053Z,38.25
2018-05-31T14:49:29.685Z,38.79
2018-05-31T14:51:57.383Z,38.00
2018-05-31T14:54:25.924Z,36.91
2018-05-31T14:56:53.602Z,34.28
2018-05-31T14:59:21.193Z,33.33
2018-05-31T15:01:49.773Z,32.33
2018-05-31T15:04:17.357Z,29.99
2018-05-31T15:06:44.946Z,33.31
2018-05-31T15:09:12.533Z,30.06
2018-05-31T15:11:40.119Z,31.08
2018-05-31T15:14:07.709Z,29.97
2018-05-31T15:16:35.289Z,31.66
2018-05-31T15:19:02.868Z,30.74
2018-05-31T15:21:30.447Z,29.36
2018-05-31T15:23:58.030Z,30.35
2018-05-31T15:26:25.614Z,30.45
2018-05-31T15:28:53.205Z,29.92
2018-05-31T15:31:20.790Z,29.53
2018-05-31T15:33:49.282Z,29.56
2018-05-31T15:36:16.867Z,29.77
2018-05-31T15:38:44.449Z,29.20
2018-05-31T15:41:12.037Z,29.82
2018-05-31T15:43:39.621Z,30.14
2018-05-31T15:46:07.203Z,30.23
2018-05-31T15:48:34.785Z,30.13
2018-05-31T15:51:02.371Z,30.67
2018-05-31T15:53:29.966Z,32.07
2018-05-31T15:55:57.559Z,33.40
2018-05-31T15:58:25.165Z,32.32
2018-05-31T16:00:52.746Z,34.00
2018-05-31T16:03:20.332Z,35.66
2018-05-31T16:05:47.910Z,34.31
2018-05-31T16:08:15.489Z,35.89
2018-05-31T16:10:43.061Z,35.40
2018-05-31T16:13:10.643Z,36.06
2018-05-31T16:15:38.504Z,37.87
2018-05-31T16:18:06.132Z,38.71
2018-05-31T16:20:33.741Z,40.12
2018-05-31T16:23:01.323Z,40.43
2018-05-31T16:25:28.905Z,38.56
2018-05-31T16:27:56.476Z,39.88
2018-05-31T16:30:24.055Z,39.60
2018-05-31T16:32:51.638Z,38.65
2018-05-31T16:35:19.218Z,37.43
2018-05-31T16:37:46.808Z,38.62
2018-05-31T16:40:14.387Z,38.96
2018-05-31T16:42:41.965Z,38.41
2018-05-31T16:45:09.547Z,40.64
2018-05-31T16:47:37.167Z,40.04
2018-05-31T16:50:04.777Z,40.53
2018-05-31T16:52:32.374Z,40.50
2018-05-31T16:54:59.956Z,37.57
2018-05-31T16:57:27.538Z,38.86
2018-05-31T16:59:55.206Z,38.95
2018-05-31T17:02:22.791Z,39.74
2018-05-31T17:04:50.391Z,41.11
2018-05-31T17:07:17.977Z,41.41
2018-05-31T17:09:45.554Z,39.29
2018-05-31T17:12:13.137Z,41.71
2018-05-31T17:14:40.783Z,40.81
2018-05-31T17:17:08.367Z,42.08
2018-05-31T17:19:35.990Z,40.76
2018-05-31T17:22:03.573Z,42.95
2018-05-31T17:24:31.198Z,42.26
2018-05-31T17:26:58.778Z,42.96
2018-05-31T17:29:26.371Z,39.21
2018-05-31T17:31:53.959Z,39.94
2018-05-31T17:34:21.577Z,42.75
2018-05-31T17:36:49.158Z,43.22
2018-05-31T17:39:16.742Z,41.52
2018-05-31T17:41:44.331Z,42.51
2018-05-31T17:44:12.019Z,42.82
2018-05-31T17:46:39.677Z,44.04
2018-05-31T17:49:07.253Z,44.18
2018-05-31T17:51:34.831Z,44.05
2018-05-31T17:54:02.958Z,44.07
2018-05-31T17:56:30.539Z,44.33
2018-05-31T17:58:58.154Z,45.44
2018-05-31T18:01:25.746Z,43.57
2018-05-31T18:03:53.427Z,44.43
2018-05-31T18:06:21.018Z,45.65
2018-05-31T18:08:48.646Z,44.96
2018-05-31T18:11:16.227Z,45.53
2018-05-31T18:13:43.870Z,45.64
2018-05-31T18:16:11.536Z,44.25
2018-05-31T18:18:39.158Z,45.97
2018-05-31T18:21:06.768Z,46.44
2018-05-31T18:23:34.418Z,47.82
2018-05-31T18:26:02.011Z,47.20
2018-05-31T18:28:29.595Z,47.67
2018-05-31T18:30:57.169Z,47.42
2018-05-31T18:33:24.802Z,49.40
2018-05-31T18:35:52.426Z,48.67
2018-05-31T18:38:20.014Z,48.82
2018-05-31T18:40:48.359Z,49.75
2018-05-31T18:43:15.940Z,49.44
2018-05-31T18:45:43.603Z,50.40
2018-05-31T18:48:11.181Z,50.01
2018-05-31T18:50:38.823Z,50.36
2018-05-31T18:53:06.410Z,51.29
2018-05-31T18:55:33.990Z,51.01
2018-05-31T18:58:01.571Z,50.66
2018-05-31T19:00:29.261Z,51.04
2018-05-31T19:02:56.842Z,50.88
2018-05-31T19:05:24.426Z,51.64
2018-05-31T19:07:52.086Z,52.23
2018-05-31T19:10:19.675Z,51.84
2018-05-31T19:12:52.937Z,51.72
2018-05-31T19:15:21.768Z,52.22
2018-05-31T19:17:48.179Z,53.34
2018-05-31T19:20:15.809Z,53.25
2018-05-31T19:22:43.506Z,53.21
2018-05-31T19:25:16.623Z,53.07
2018-05-31T19:27:44.309Z,53.35
2018-05-31T19:30:17.617Z,53.44
2018-05-31T19:32:45.266Z,54.07
2018-05-31T19:35:18.718Z,54.48
2018-05-31T19:37:46.298Z,54.38
2018-05-31T19:40:14.029Z,54.86
2018-05-31T19:42:47.230Z,56.41
2018-05-31T19:45:15.406Z,55.32
2018-05-31T19:47:43.061Z,55.24
2018-05-31T19:50:10.693Z,54.79
2018-05-31T19:52:43.771Z,54.96
2018-05-31T19:55:11.354Z,55.80
2018-05-31T19:57:44.369Z,55.20
2018-05-31T20:00:17.569Z,55.44
2018-05-31T20:02:50.806Z,55.61
2018-05-31T20:05:18.508Z,56.55
2018-05-31T20:07:46.093Z,55.94
2018-05-31T20:10:13.717Z,55.92
2018-05-31T20:12:41.346Z,56.34
2018-05-31T20:15:08.926Z,56.38
2018-05-31T20:17:36.513Z,56.54
2018-05-31T20:20:04.151Z,56.90
2018-05-31T20:22:31.809Z,57.39
2018-05-31T20:24:59.401Z,57.45
2018-05-31T20:27:26.991Z,57.11
2018-05-31T20:29:54.646Z,57.70
2018-05-31T20:32:22.266Z,58.76
2018-05-31T20:34:49.849Z,58.47
2018-05-31T20:37:17.474Z,57.91
2018-05-31T20:39:45.061Z,59.08
2018-05-31T20:42:12.653Z,59.61
2018-05-31T20:44:40.234Z,58.28
2018-05-31T20:47:07.816Z,59.31
2018-05-31T20:49:35.484Z,59.06
2018-05-31T20:52:03.148Z,61.96
2018-05-31T20:54:30.781Z,60.90
2018-05-31T20:56:58.378Z,59.69
2018-05-31T20:59:25.972Z,59.99
2018-05-31T21:01:53.554Z,59.84
2018-05-31T21:04:21.134Z,59.89
2018-05-31T21:06:48.719Z,60.02
2018-05-31T21:09:16.906Z,59.77
2018-05-31T21:11:44.489Z,60.95
2018-05-31T21:14:12.084Z,60.81
2018-05-31T21:16:39.725Z,60.67
2018-05-31T21:19:07.352Z,60.79
2018-05-31T21:21:34.989Z,61.22
2018-05-31T21:24:03.012Z,61.28
2018-05-31T21:26:30.676Z,61.83
2018-05-31T21:28:58.257Z,62.08
2018-05-31T21:31:25.846Z,62.59
2018-05-31T21:33:53.434Z,62.49
2018-05-31T21:36:21.092Z,62.73
2018-05-31T21:38:48.643Z,63.36
2018-05-31T21:41:16.464Z,63.42
2018-05-31T21:43:44.058Z,63.57
2018-05-31T21:46:11.738Z,63.62
2018-05-31T21:48:39.407Z,63.99
2018-05-31T21:51:06.989Z,64.03
2018-05-31T21:53:34.629Z,64.06
2018-05-31T21:56:02.288Z,64.69
2018-05-31T21:58:29.952Z,64.77
2018-05-31T22:00:57.638Z,65.19
2018-05-31T22:03:25.319Z,65.34
2018-05-31T22:05:52.909Z,65.37
2018-05-31T22:08:20.494Z,65.83
2018-05-31T22:10:48.085Z,65.73
2018-05-31T22:13:15.661Z,65.63
2018-05-31T22:15:43.457Z,65.91
2018-05-31T22:18:11.042Z,65.88
2018-05-31T22:20:38.669Z,65.84
2018-05-31T22:23:06.249Z,66.09
2018-05-31T22:25:33.869Z,65.93
2018-05-31T22:28:01.494Z,66.31
2018-05-31T22:30:29.676Z,66.47
2018-05-31T22:32:57.302Z,66.73
2018-05-31T22:35:24.894Z,66.71
2018-05-31T22:37:52.521Z,66.95
2018-05-31T22:40:20.112Z,67.47
2018-05-31T22:42:47.751Z,67.68
2018-05-31T22:45:15.337Z,67.98
2018-05-31T22:47:43.705Z,67.76
2018-05-31T22:50:11.293Z,67.81
2018-05-31T22:52:38.881Z,68.00
2018-05-31T22:55:06.467Z,68.07
2018-05-31T22:57:34.054Z,68.44
2018-05-31T23:00:01.685Z,68.62
2018-05-31T23:02:29.282Z,69.03
2018-05-31T23:04:56.906Z,69.23
2018-05-31T23:07:24.490Z,70.07
2018-05-31T23:09:52.877Z,69.79
2018-05-31T23:12:20.467Z,70.27
2018-05-31T23:14:48.089Z,70.01
2018-05-31T23:17:15.678Z,70.19
2018-05-31T23:19:43.260Z,70.52
2018-05-31T23:22:10.843Z,70.73
2018-05-31T23:24:38.437Z,70.78
2018-05-31T23:27:06.061Z,70.97
2018-05-31T23:29:34.336Z,71.16
2018-05-31T23:32:01.960Z,71.17
2018-05-31T23:34:29.543Z,71.18
2018-05-31T23:36:57.167Z,71.40
2018-05-31T23:39:24.755Z,71.42
2018-05-31T23:41:52.384Z,71.50
2018-05-31T23:44:19.969Z,71.41
2018-05-31T23:46:47.552Z,71.61
2018-05-31T23:49:15.174Z,71.49
2018-05-31T23:51:42.757Z,71.36
2018-05-31T23:54:10.376Z,71.51
2018-05-31T23:56:37.961Z,71.39
2018-05-31T23:59:05.594Z,71.06
